sensor_id;sensor_type;location;lat;lon;timestamp;P1;durP1;ratioP1;P2;durP2;ratioP2
46745;SDS011;32493;50.514;9.678;2023-04-04T00:00:22;4.95;;;2.55;;
46745;SDS011;32493;50.514;9.678;2023-04-04T00:02:28;5.15;;;2.58;;
46745;SDS011;32493;50.514;9.678;2023-04-04T00:04:36;6.72;;;3.30;;
46745;SDS011;32493;50.514;9.678;2023-04-04T00:06:41;5.13;;;3.05;;
46745;SDS011;32493;50.514;9.678;2023-04-04T00:08:48;6.32;;;2.88;;
46745;SDS011;32493;50.514;9.678;2023-04-04T00:10:56;5.47;;;2.50;;
46745;SDS011;32493;50.514;9.678;2023-04-04T00:13:02;4.78;;;3.28;;
46745;SDS011;32493;50.514;9.678;2023-04-04T00:15:08;4.63;;;2.75;;
46745;SDS011;32493;50.514;9.678;2023-04-04T00:17:15;4.22;;;2.65;;
46745;SDS011;32493;50.514;9.678;2023-04-04T00:19:20;3.42;;;2.65;;
46745;SDS011;32493;50.514;9.678;2023-04-04T00:21:29;4.55;;;2.72;;
46745;SDS011;32493;50.514;9.678;2023-04-04T00:23:34;6.63;;;3.10;;
46745;SDS011;32493;50.514;9.678;2023-04-04T00:25:40;5.03;;;2.72;;
46745;SDS011;32493;50.514;9.678;2023-04-04T00:27:46;3.63;;;2.20;;
46745;SDS011;32493;50.514;9.678;2023-04-04T00:29:52;6.78;;;3.38;;
46745;SDS011;32493;50.514;9.678;2023-04-04T00:31:57;4.00;;;2.20;;
46745;SDS011;32493;50.514;9.678;2023-04-04T00:34:03;3.95;;;2.33;;
46745;SDS011;32493;50.514;9.678;2023-04-04T00:36:09;4.80;;;2.63;;
46745;SDS011;32493;50.514;9.678;2023-04-04T00:38:17;4.55;;;2.50;;
46745;SDS011;32493;50.514;9.678;2023-04-04T00:40:22;9.18;;;3.17;;
46745;SDS011;32493;50.514;9.678;2023-04-04T00:42:27;5.47;;;2.92;;
46745;SDS011;32493;50.514;9.678;2023-04-04T00:44:33;3.33;;;2.38;;
46745;SDS011;32493;50.514;9.678;2023-04-04T00:46:39;4.50;;;2.28;;
46745;SDS011;32493;50.514;9.678;2023-04-04T00:48:44;6.38;;;2.40;;
46745;SDS011;32493;50.514;9.678;2023-04-04T00:50:51;4.97;;;2.53;;
46745;SDS011;32493;50.514;9.678;2023-04-04T00:52:57;10.25;;;2.83;;
46745;SDS011;32493;50.514;9.678;2023-04-04T00:55:06;6.93;;;2.40;;
46745;SDS011;32493;50.514;9.678;2023-04-04T00:57:11;4.70;;;2.20;;
46745;SDS011;32493;50.514;9.678;2023-04-04T00:59:17;5.13;;;2.30;;
46745;SDS011;32493;50.514;9.678;2023-04-04T01:01:23;4.22;;;2.10;;
46745;SDS011;32493;50.514;9.678;2023-04-04T01:03:28;3.35;;;1.83;;
46745;SDS011;32493;50.514;9.678;2023-04-04T01:05:34;3.83;;;2.22;;
46745;SDS011;32493;50.514;9.678;2023-04-04T01:07:39;2.67;;;1.95;;
46745;SDS011;32493;50.514;9.678;2023-04-04T01:09:45;3.80;;;2.13;;
46745;SDS011;32493;50.514;9.678;2023-04-04T01:11:53;3.92;;;2.10;;
46745;SDS011;32493;50.514;9.678;2023-04-04T01:14:01;4.18;;;2.00;;
46745;SDS011;32493;50.514;9.678;2023-04-04T01:16:07;4.50;;;1.95;;
46745;SDS011;32493;50.514;9.678;2023-04-04T01:18:13;3.85;;;2.42;;
46745;SDS011;32493;50.514;9.678;2023-04-04T01:20:23;2.38;;;1.92;;
46745;SDS011;32493;50.514;9.678;2023-04-04T01:22:30;3.72;;;2.22;;
46745;SDS011;32493;50.514;9.678;2023-04-04T01:24:36;3.80;;;1.77;;
46745;SDS011;32493;50.514;9.678;2023-04-04T01:26:48;3.78;;;1.92;;
46745;SDS011;32493;50.514;9.678;2023-04-04T01:28:56;3.10;;;1.73;;
46745;SDS011;32493;50.514;9.678;2023-04-04T01:31:02;3.47;;;2.00;;
46745;SDS011;32493;50.514;9.678;2023-04-04T01:33:12;2.83;;;1.85;;
46745;SDS011;32493;50.514;9.678;2023-04-04T01:35:25;5.10;;;2.13;;
46745;SDS011;32493;50.514;9.678;2023-04-04T01:37:42;3.65;;;1.92;;
46745;SDS011;32493;50.514;9.678;2023-04-04T01:39:58;4.95;;;2.00;;
46745;SDS011;32493;50.514;9.678;2023-04-04T01:42:13;5.70;;;2.08;;
46745;SDS011;32493;50.514;9.678;2023-04-04T01:44:22;4.43;;;2.22;;
46745;SDS011;32493;50.514;9.678;2023-04-04T01:46:28;4.38;;;1.98;;
46745;SDS011;32493;50.514;9.678;2023-04-04T01:48:34;4.38;;;2.28;;
46745;SDS011;32493;50.514;9.678;2023-04-04T01:50:41;4.13;;;2.08;;
46745;SDS011;32493;50.514;9.678;2023-04-04T01:52:46;3.85;;;1.95;;
46745;SDS011;32493;50.514;9.678;2023-04-04T01:54:52;4.15;;;2.38;;
46745;SDS011;32493;50.514;9.678;2023-04-04T01:56:58;4.18;;;2.28;;
46745;SDS011;32493;50.514;9.678;2023-04-04T01:59:06;4.35;;;2.08;;
46745;SDS011;32493;50.514;9.678;2023-04-04T02:01:12;4.53;;;1.88;;
46745;SDS011;32493;50.514;9.678;2023-04-04T02:03:17;4.60;;;2.10;;
46745;SDS011;32493;50.514;9.678;2023-04-04T02:05:22;4.40;;;2.40;;
46745;SDS011;32493;50.514;9.678;2023-04-04T02:07:27;3.63;;;1.90;;
46745;SDS011;32493;50.514;9.678;2023-04-04T02:09:33;5.03;;;2.22;;
46745;SDS011;32493;50.514;9.678;2023-04-04T02:11:39;5.10;;;2.05;;
46745;SDS011;32493;50.514;9.678;2023-04-04T02:13:44;4.38;;;3.47;;
46745;SDS011;32493;50.514;9.678;2023-04-04T02:15:54;5.88;;;3.28;;
46745;SDS011;32493;50.514;9.678;2023-04-04T02:18:00;7.53;;;2.90;;
46745;SDS011;32493;50.514;9.678;2023-04-04T02:20:06;5.93;;;2.30;;
46745;SDS011;32493;50.514;9.678;2023-04-04T02:22:12;4.45;;;2.13;;
46745;SDS011;32493;50.514;9.678;2023-04-04T02:24:18;3.33;;;2.20;;
46745;SDS011;32493;50.514;9.678;2023-04-04T02:26:23;2.90;;;1.80;;
46745;SDS011;32493;50.514;9.678;2023-04-04T02:28:28;6.60;;;2.20;;
46745;SDS011;32493;50.514;9.678;2023-04-04T02:30:33;4.03;;;2.10;;
46745;SDS011;32493;50.514;9.678;2023-04-04T02:32:42;3.92;;;2.28;;
46745;SDS011;32493;50.514;9.678;2023-04-04T02:34:51;3.45;;;2.13;;
46745;SDS011;32493;50.514;9.678;2023-04-04T02:36:56;4.40;;;2.35;;
46745;SDS011;32493;50.514;9.678;2023-04-04T02:39:03;6.13;;;2.33;;
46745;SDS011;32493;50.514;9.678;2023-04-04T02:41:12;3.53;;;2.13;;
46745;SDS011;32493;50.514;9.678;2023-04-04T02:43:17;6.00;;;2.20;;
46745;SDS011;32493;50.514;9.678;2023-04-04T02:45:23;5.60;;;2.50;;
46745;SDS011;32493;50.514;9.678;2023-04-04T02:47:51;4.50;;;2.35;;
46745;SDS011;32493;50.514;9.678;2023-04-04T02:50:04;4.20;;;2.38;;
46745;SDS011;32493;50.514;9.678;2023-04-04T02:52:13;5.10;;;2.28;;
46745;SDS011;32493;50.514;9.678;2023-04-04T02:54:20;5.00;;;2.25;;
46745;SDS011;32493;50.514;9.678;2023-04-04T02:56:25;6.55;;;2.63;;
46745;SDS011;32493;50.514;9.678;2023-04-04T02:58:31;3.78;;;2.35;;
46745;SDS011;32493;50.514;9.678;2023-04-04T03:00:37;4.53;;;2.00;;
46745;SDS011;32493;50.514;9.678;2023-04-04T03:02:42;4.20;;;2.28;;
46745;SDS011;32493;50.514;9.678;2023-04-04T03:04:51;3.65;;;1.98;;
46745;SDS011;32493;50.514;9.678;2023-04-04T03:06:56;8.82;;;2.42;;
46745;SDS011;32493;50.514;9.678;2023-04-04T03:09:03;4.38;;;1.85;;
46745;SDS011;32493;50.514;9.678;2023-04-04T03:11:08;4.72;;;2.30;;
46745;SDS011;32493;50.514;9.678;2023-04-04T03:13:14;3.67;;;1.90;;
46745;SDS011;32493;50.514;9.678;2023-04-04T03:15:20;6.93;;;2.72;;
46745;SDS011;32493;50.514;9.678;2023-04-04T03:17:26;3.45;;;1.90;;
46745;SDS011;32493;50.514;9.678;2023-04-04T03:19:31;3.60;;;2.00;;
46745;SDS011;32493;50.514;9.678;2023-04-04T03:21:39;5.38;;;2.17;;
46745;SDS011;32493;50.514;9.678;2023-04-04T03:23:44;7.35;;;2.35;;
46745;SDS011;32493;50.514;9.678;2023-04-04T03:25:50;4.45;;;2.08;;
46745;SDS011;32493;50.514;9.678;2023-04-04T03:27:55;7.75;;;2.40;;
46745;SDS011;32493;50.514;9.678;2023-04-04T03:30:03;4.85;;;2.25;;
46745;SDS011;32493;50.514;9.678;2023-04-04T03:32:10;4.40;;;2.40;;
46745;SDS011;32493;50.514;9.678;2023-04-04T03:34:20;5.30;;;2.33;;
46745;SDS011;32493;50.514;9.678;2023-04-04T03:36:25;5.70;;;2.28;;
46745;SDS011;32493;50.514;9.678;2023-04-04T03:38:33;4.22;;;2.20;;
46745;SDS011;32493;50.514;9.678;2023-04-04T03:40:40;3.50;;;1.92;;
46745;SDS011;32493;50.514;9.678;2023-04-04T03:42:46;3.88;;;2.45;;
46745;SDS011;32493;50.514;9.678;2023-04-04T03:44:53;5.28;;;2.45;;
46745;SDS011;32493;50.514;9.678;2023-04-04T03:47:04;4.32;;;2.17;;
46745;SDS011;32493;50.514;9.678;2023-04-04T03:49:09;7.05;;;2.47;;
46745;SDS011;32493;50.514;9.678;2023-04-04T03:51:21;4.50;;;2.20;;
46745;SDS011;32493;50.514;9.678;2023-04-04T03:53:28;3.83;;;2.30;;
46745;SDS011;32493;50.514;9.678;2023-04-04T03:55:37;7.05;;;2.25;;
46745;SDS011;32493;50.514;9.678;2023-04-04T03:57:44;8.48;;;2.40;;
46745;SDS011;32493;50.514;9.678;2023-04-04T03:59:50;6.18;;;2.65;;
46745;SDS011;32493;50.514;9.678;2023-04-04T04:01:57;5.97;;;2.13;;
46745;SDS011;32493;50.514;9.678;2023-04-04T04:04:03;5.95;;;2.30;;
46745;SDS011;32493;50.514;9.678;2023-04-04T04:06:08;5.47;;;2.45;;
46745;SDS011;32493;50.514;9.678;2023-04-04T04:08:13;4.80;;;2.95;;
46745;SDS011;32493;50.514;9.678;2023-04-04T04:10:19;5.90;;;2.70;;
46745;SDS011;32493;50.514;9.678;2023-04-04T04:12:26;5.10;;;2.67;;
46745;SDS011;32493;50.514;9.678;2023-04-04T04:14:32;5.88;;;2.58;;
46745;SDS011;32493;50.514;9.678;2023-04-04T04:16:41;7.18;;;2.63;;
46745;SDS011;32493;50.514;9.678;2023-04-04T04:18:53;8.93;;;3.25;;
46745;SDS011;32493;50.514;9.678;2023-04-04T04:21:07;5.22;;;2.80;;
46745;SDS011;32493;50.514;9.678;2023-04-04T04:23:15;4.43;;;2.72;;
46745;SDS011;32493;50.514;9.678;2023-04-04T04:25:23;5.78;;;2.85;;
46745;SDS011;32493;50.514;9.678;2023-04-04T04:27:49;8.65;;;3.03;;
46745;SDS011;32493;50.514;9.678;2023-04-04T04:30:00;7.15;;;3.08;;
46745;SDS011;32493;50.514;9.678;2023-04-04T04:32:10;6.28;;;2.78;;
46745;SDS011;32493;50.514;9.678;2023-04-04T04:34:23;5.43;;;2.97;;
46745;SDS011;32493;50.514;9.678;2023-04-04T04:36:33;5.90;;;2.88;;
46745;SDS011;32493;50.514;9.678;2023-04-04T04:38:50;7.10;;;3.03;;
46745;SDS011;32493;50.514;9.678;2023-04-04T04:40:55;6.45;;;2.90;;
46745;SDS011;32493;50.514;9.678;2023-04-04T04:43:10;6.00;;;3.22;;
46745;SDS011;32493;50.514;9.678;2023-04-04T04:45:16;16.70;;;5.68;;
46745;SDS011;32493;50.514;9.678;2023-04-04T04:47:28;41.72;;;14.88;;
46745;SDS011;32493;50.514;9.678;2023-04-04T04:49:37;21.95;;;9.02;;
46745;SDS011;32493;50.514;9.678;2023-04-04T04:51:45;20.58;;;9.07;;
46745;SDS011;32493;50.514;9.678;2023-04-04T04:53:53;23.73;;;10.07;;
46745;SDS011;32493;50.514;9.678;2023-04-04T04:56:00;20.38;;;8.90;;
46745;SDS011;32493;50.514;9.678;2023-04-04T04:58:10;21.73;;;9.57;;
46745;SDS011;32493;50.514;9.678;2023-04-04T05:00:22;14.75;;;6.43;;
46745;SDS011;32493;50.514;9.678;2023-04-04T05:02:27;11.25;;;5.43;;
46745;SDS011;32493;50.514;9.678;2023-04-04T05:04:34;8.25;;;3.85;;
46745;SDS011;32493;50.514;9.678;2023-04-04T05:06:39;8.63;;;4.18;;
46745;SDS011;32493;50.514;9.678;2023-04-04T05:08:46;8.10;;;4.00;;
46745;SDS011;32493;50.514;9.678;2023-04-04T05:11:04;10.48;;;3.83;;
46745;SDS011;32493;50.514;9.678;2023-04-04T05:13:13;12.65;;;3.95;;
46745;SDS011;32493;50.514;9.678;2023-04-04T05:15:21;10.23;;;4.50;;
46745;SDS011;32493;50.514;9.678;2023-04-04T05:17:30;9.02;;;4.40;;
46745;SDS011;32493;50.514;9.678;2023-04-04T05:19:41;6.90;;;3.60;;
46745;SDS011;32493;50.514;9.678;2023-04-04T05:21:51;9.85;;;3.78;;
46745;SDS011;32493;50.514;9.678;2023-04-04T05:24:17;11.55;;;4.57;;
46745;SDS011;32493;50.514;9.678;2023-04-04T05:26:23;10.15;;;4.53;;
46745;SDS011;32493;50.514;9.678;2023-04-04T05:28:32;9.07;;;4.53;;
46745;SDS011;32493;50.514;9.678;2023-04-04T05:30:39;7.18;;;3.95;;
46745;SDS011;32493;50.514;9.678;2023-04-04T05:32:50;10.50;;;3.85;;
46745;SDS011;32493;50.514;9.678;2023-04-04T05:35:01;9.93;;;3.72;;
46745;SDS011;32493;50.514;9.678;2023-04-04T05:37:10;7.90;;;3.60;;
46745;SDS011;32493;50.514;9.678;2023-04-04T05:39:21;7.05;;;3.78;;
46745;SDS011;32493;50.514;9.678;2023-04-04T05:41:37;11.25;;;3.85;;
46745;SDS011;32493;50.514;9.678;2023-04-04T05:43:50;8.27;;;3.80;;
46745;SDS011;32493;50.514;9.678;2023-04-04T05:45:57;7.10;;;4.15;;
46745;SDS011;32493;50.514;9.678;2023-04-04T05:48:08;7.40;;;3.88;;
46745;SDS011;32493;50.514;9.678;2023-04-04T05:50:22;8.10;;;4.40;;
46745;SDS011;32493;50.514;9.678;2023-04-04T05:52:33;8.70;;;4.25;;
46745;SDS011;32493;50.514;9.678;2023-04-04T05:54:43;6.68;;;3.70;;
46745;SDS011;32493;50.514;9.678;2023-04-04T05:56:57;7.28;;;3.53;;
46745;SDS011;32493;50.514;9.678;2023-04-04T05:59:19;9.70;;;4.30;;
46745;SDS011;32493;50.514;9.678;2023-04-04T06:01:29;14.82;;;4.30;;
46745;SDS011;32493;50.514;9.678;2023-04-04T06:03:42;6.35;;;3.63;;
46745;SDS011;32493;50.514;9.678;2023-04-04T06:05:53;8.27;;;3.55;;
46745;SDS011;32493;50.514;9.678;2023-04-04T06:07:59;7.22;;;3.78;;
46745;SDS011;32493;50.514;9.678;2023-04-04T06:10:08;5.60;;;3.45;;
46745;SDS011;32493;50.514;9.678;2023-04-04T06:12:15;7.13;;;3.38;;
46745;SDS011;32493;50.514;9.678;2023-04-04T06:14:24;7.88;;;3.20;;
46745;SDS011;32493;50.514;9.678;2023-04-04T06:16:32;6.40;;;2.90;;
46745;SDS011;32493;50.514;9.678;2023-04-04T06:18:44;4.20;;;2.70;;
46745;SDS011;32493;50.514;9.678;2023-04-04T06:20:49;5.05;;;2.92;;
46745;SDS011;32493;50.514;9.678;2023-04-04T06:22:54;7.00;;;3.00;;
46745;SDS011;32493;50.514;9.678;2023-04-04T06:27:11;9.18;;;3.53;;
46745;SDS011;32493;50.514;9.678;2023-04-04T06:29:18;5.13;;;2.65;;
46745;SDS011;32493;50.514;9.678;2023-04-04T06:31:27;7.10;;;2.97;;
46745;SDS011;32493;50.514;9.678;2023-04-04T06:33:41;4.57;;;2.60;;
46745;SDS011;32493;50.514;9.678;2023-04-04T06:35:52;5.57;;;2.30;;
46745;SDS011;32493;50.514;9.678;2023-04-04T06:37:58;4.80;;;2.60;;
46745;SDS011;32493;50.514;9.678;2023-04-04T06:40:06;7.65;;;2.50;;
46745;SDS011;32493;50.514;9.678;2023-04-04T06:42:13;4.82;;;2.20;;
46745;SDS011;32493;50.514;9.678;2023-04-04T06:44:22;3.72;;;2.15;;
46745;SDS011;32493;50.514;9.678;2023-04-04T06:46:31;4.13;;;2.10;;
46745;SDS011;32493;50.514;9.678;2023-04-04T06:48:36;4.13;;;2.00;;
46745;SDS011;32493;50.514;9.678;2023-04-04T06:50:42;6.07;;;2.13;;
46745;SDS011;32493;50.514;9.678;2023-04-04T06:52:50;5.10;;;2.17;;
46745;SDS011;32493;50.514;9.678;2023-04-04T06:54:57;6.20;;;2.33;;
46745;SDS011;32493;50.514;9.678;2023-04-04T06:57:03;4.68;;;2.17;;
46745;SDS011;32493;50.514;9.678;2023-04-04T06:59:08;4.57;;;1.92;;
46745;SDS011;32493;50.514;9.678;2023-04-04T07:01:15;8.40;;;2.30;;
46745;SDS011;32493;50.514;9.678;2023-04-04T07:03:22;4.63;;;1.88;;
46745;SDS011;32493;50.514;9.678;2023-04-04T07:05:28;6.20;;;1.90;;
46745;SDS011;32493;50.514;9.678;2023-04-04T07:07:33;6.35;;;1.88;;
46745;SDS011;32493;50.514;9.678;2023-04-04T07:09:38;5.32;;;1.65;;
46745;SDS011;32493;50.514;9.678;2023-04-04T07:11:44;3.55;;;1.65;;
46745;SDS011;32493;50.514;9.678;2023-04-04T07:13:49;4.20;;;1.92;;
46745;SDS011;32493;50.514;9.678;2023-04-04T07:15:54;6.55;;;2.00;;
46745;SDS011;32493;50.514;9.678;2023-04-04T07:18:00;4.18;;;1.90;;
46745;SDS011;32493;50.514;9.678;2023-04-04T07:20:14;6.32;;;2.05;;
46745;SDS011;32493;50.514;9.678;2023-04-04T07:22:25;5.53;;;2.05;;
46745;SDS011;32493;50.514;9.678;2023-04-04T07:24:31;6.35;;;2.10;;
46745;SDS011;32493;50.514;9.678;2023-04-04T07:26:36;3.83;;;2.13;;
46745;SDS011;32493;50.514;9.678;2023-04-04T07:28:42;4.43;;;2.17;;
46745;SDS011;32493;50.514;9.678;2023-04-04T07:30:47;2.88;;;1.73;;
46745;SDS011;32493;50.514;9.678;2023-04-04T07:32:55;5.88;;;2.20;;
46745;SDS011;32493;50.514;9.678;2023-04-04T07:35:01;4.85;;;2.25;;
46745;SDS011;32493;50.514;9.678;2023-04-04T07:37:09;4.05;;;2.33;;
46745;SDS011;32493;50.514;9.678;2023-04-04T07:39:15;5.32;;;2.08;;
46745;SDS011;32493;50.514;9.678;2023-04-04T07:41:20;5.03;;;2.00;;
46745;SDS011;32493;50.514;9.678;2023-04-04T07:43:26;5.43;;;1.92;;
46745;SDS011;32493;50.514;9.678;2023-04-04T07:45:31;4.13;;;1.90;;
46745;SDS011;32493;50.514;9.678;2023-04-04T07:47:36;3.67;;;2.03;;
46745;SDS011;32493;50.514;9.678;2023-04-04T07:49:46;4.75;;;2.20;;
46745;SDS011;32493;50.514;9.678;2023-04-04T07:51:52;5.93;;;2.20;;
46745;SDS011;32493;50.514;9.678;2023-04-04T07:54:01;5.20;;;2.58;;
46745;SDS011;32493;50.514;9.678;2023-04-04T07:56:06;4.50;;;2.03;;
46745;SDS011;32493;50.514;9.678;2023-04-04T07:58:11;5.00;;;2.25;;
46745;SDS011;32493;50.514;9.678;2023-04-04T08:00:17;3.22;;;1.85;;
46745;SDS011;32493;50.514;9.678;2023-04-04T08:02:27;4.88;;;2.60;;
46745;SDS011;32493;50.514;9.678;2023-04-04T08:04:32;4.10;;;2.10;;
46745;SDS011;32493;50.514;9.678;2023-04-04T08:06:37;4.63;;;2.20;;
46745;SDS011;32493;50.514;9.678;2023-04-04T08:08:42;4.20;;;2.40;;
46745;SDS011;32493;50.514;9.678;2023-04-04T08:10:51;4.15;;;2.33;;
46745;SDS011;32493;50.514;9.678;2023-04-04T08:12:56;5.07;;;2.58;;
46745;SDS011;32493;50.514;9.678;2023-04-04T08:15:01;5.20;;;2.45;;
46745;SDS011;32493;50.514;9.678;2023-04-04T08:17:07;3.53;;;1.90;;
46745;SDS011;32493;50.514;9.678;2023-04-04T08:19:12;5.20;;;2.38;;
46745;SDS011;32493;50.514;9.678;2023-04-04T08:21:18;4.70;;;2.17;;
46745;SDS011;32493;50.514;9.678;2023-04-04T08:23:23;7.53;;;2.42;;
46745;SDS011;32493;50.514;9.678;2023-04-04T08:25:30;6.20;;;3.38;;
46745;SDS011;32493;50.514;9.678;2023-04-04T08:27:40;4.55;;;2.38;;
46745;SDS011;32493;50.514;9.678;2023-04-04T08:29:46;3.20;;;2.03;;
46745;SDS011;32493;50.514;9.678;2023-04-04T08:31:51;5.30;;;2.25;;
46745;SDS011;32493;50.514;9.678;2023-04-04T08:33:56;5.32;;;2.03;;
46745;SDS011;32493;50.514;9.678;2023-04-04T08:36:02;5.07;;;2.38;;
46745;SDS011;32493;50.514;9.678;2023-04-04T08:38:08;5.47;;;2.17;;
46745;SDS011;32493;50.514;9.678;2023-04-04T08:40:13;6.10;;;2.15;;
46745;SDS011;32493;50.514;9.678;2023-04-04T08:42:18;5.43;;;2.35;;
46745;SDS011;32493;50.514;9.678;2023-04-04T08:44:28;5.07;;;2.33;;
46745;SDS011;32493;50.514;9.678;2023-04-04T08:46:34;4.88;;;2.10;;
46745;SDS011;32493;50.514;9.678;2023-04-04T08:48:40;3.28;;;2.25;;
46745;SDS011;32493;50.514;9.678;2023-04-04T08:50:47;5.88;;;2.95;;
46745;SDS011;32493;50.514;9.678;2023-04-04T08:52:55;8.02;;;2.55;;
46745;SDS011;32493;50.514;9.678;2023-04-04T08:55:05;5.05;;;2.80;;
46745;SDS011;32493;50.514;9.678;2023-04-04T08:57:12;7.72;;;2.78;;
46745;SDS011;32493;50.514;9.678;2023-04-04T08:59:17;5.97;;;2.50;;
46745;SDS011;32493;50.514;9.678;2023-04-04T09:01:26;3.45;;;2.17;;
46745;SDS011;32493;50.514;9.678;2023-04-04T09:03:32;2.90;;;2.22;;
46745;SDS011;32493;50.514;9.678;2023-04-04T09:05:39;5.03;;;2.30;;
46745;SDS011;32493;50.514;9.678;2023-04-04T09:07:44;4.43;;;2.25;;
46745;SDS011;32493;50.514;9.678;2023-04-04T09:09:50;7.78;;;2.72;;
46745;SDS011;32493;50.514;9.678;2023-04-04T09:11:57;3.78;;;2.20;;
46745;SDS011;32493;50.514;9.678;2023-04-04T09:14:03;4.25;;;2.28;;
46745;SDS011;32493;50.514;9.678;2023-04-04T09:16:09;4.38;;;2.13;;
46745;SDS011;32493;50.514;9.678;2023-04-04T09:18:16;5.97;;;2.10;;
46745;SDS011;32493;50.514;9.678;2023-04-04T09:22:44;3.60;;;2.13;;
46745;SDS011;32493;50.514;9.678;2023-04-04T09:24:49;4.63;;;2.17;;
46745;SDS011;32493;50.514;9.678;2023-04-04T09:26:54;4.65;;;2.15;;
46745;SDS011;32493;50.514;9.678;2023-04-04T09:28:59;3.40;;;2.40;;
46745;SDS011;32493;50.514;9.678;2023-04-04T09:31:06;4.45;;;2.42;;
46745;SDS011;32493;50.514;9.678;2023-04-04T09:33:31;5.50;;;2.45;;
46745;SDS011;32493;50.514;9.678;2023-04-04T09:35:37;3.50;;;2.15;;
46745;SDS011;32493;50.514;9.678;2023-04-04T09:37:48;4.80;;;2.75;;
46745;SDS011;32493;50.514;9.678;2023-04-04T09:39:53;3.90;;;2.33;;
46745;SDS011;32493;50.514;9.678;2023-04-04T09:41:59;4.60;;;2.30;;
46745;SDS011;32493;50.514;9.678;2023-04-04T09:44:05;3.80;;;2.28;;
46745;SDS011;32493;50.514;9.678;2023-04-04T09:46:13;4.03;;;2.25;;
46745;SDS011;32493;50.514;9.678;2023-04-04T09:48:26;5.60;;;2.45;;
46745;SDS011;32493;50.514;9.678;2023-04-04T09:50:38;6.53;;;2.38;;
46745;SDS011;32493;50.514;9.678;2023-04-04T09:52:50;6.95;;;2.65;;
46745;SDS011;32493;50.514;9.678;2023-04-04T09:54:56;6.22;;;2.47;;
46745;SDS011;32493;50.514;9.678;2023-04-04T09:57:02;3.70;;;2.13;;
46745;SDS011;32493;50.514;9.678;2023-04-04T09:59:08;5.28;;;2.88;;
46745;SDS011;32493;50.514;9.678;2023-04-04T10:01:14;3.60;;;2.20;;
46745;SDS011;32493;50.514;9.678;2023-04-04T10:03:21;4.88;;;2.15;;
46745;SDS011;32493;50.514;9.678;2023-04-04T10:05:28;5.38;;;2.38;;
46745;SDS011;32493;50.514;9.678;2023-04-04T10:07:37;3.90;;;2.15;;
46745;SDS011;32493;50.514;9.678;2023-04-04T10:09:45;5.50;;;2.20;;
46745;SDS011;32493;50.514;9.678;2023-04-04T10:11:51;5.20;;;2.50;;
46745;SDS011;32493;50.514;9.678;2023-04-04T10:14:12;4.53;;;2.30;;
46745;SDS011;32493;50.514;9.678;2023-04-04T10:16:18;6.47;;;2.38;;
46745;SDS011;32493;50.514;9.678;2023-04-04T10:18:28;5.95;;;2.22;;
46745;SDS011;32493;50.514;9.678;2023-04-04T10:20:34;5.32;;;2.42;;
46745;SDS011;32493;50.514;9.678;2023-04-04T10:22:43;4.18;;;2.38;;
46745;SDS011;32493;50.514;9.678;2023-04-04T10:24:50;4.50;;;2.47;;
46745;SDS011;32493;50.514;9.678;2023-04-04T10:26:56;3.15;;;2.30;;
46745;SDS011;32493;50.514;9.678;2023-04-04T10:29:01;4.43;;;3.00;;
46745;SDS011;32493;50.514;9.678;2023-04-04T10:31:08;4.22;;;2.35;;
46745;SDS011;32493;50.514;9.678;2023-04-04T10:33:22;4.28;;;1.92;;
46745;SDS011;32493;50.514;9.678;2023-04-04T10:35:35;3.58;;;2.38;;
46745;SDS011;32493;50.514;9.678;2023-04-04T10:37:49;3.92;;;2.67;;
46745;SDS011;32493;50.514;9.678;2023-04-04T10:40:03;4.90;;;2.55;;
46745;SDS011;32493;50.514;9.678;2023-04-04T10:42:13;4.00;;;2.20;;
46745;SDS011;32493;50.514;9.678;2023-04-04T10:44:22;8.38;;;3.45;;
46745;SDS011;32493;50.514;9.678;2023-04-04T10:46:34;6.90;;;2.78;;
46745;SDS011;32493;50.514;9.678;2023-04-04T10:48:44;6.43;;;2.30;;
46745;SDS011;32493;50.514;9.678;2023-04-04T10:50:50;3.85;;;2.40;;
46745;SDS011;32493;50.514;9.678;2023-04-04T10:52:59;5.18;;;2.42;;
46745;SDS011;32493;50.514;9.678;2023-04-04T10:55:05;4.00;;;2.50;;
46745;SDS011;32493;50.514;9.678;2023-04-04T10:57:14;4.25;;;2.33;;
46745;SDS011;32493;50.514;9.678;2023-04-04T10:59:20;5.90;;;2.53;;
46745;SDS011;32493;50.514;9.678;2023-04-04T11:06:22;4.40;;;2.47;;
46745;SDS011;32493;50.514;9.678;2023-04-04T11:08:46;5.47;;;2.58;;
46745;SDS011;32493;50.514;9.678;2023-04-04T11:10:58;6.70;;;2.30;;
46745;SDS011;32493;50.514;9.678;2023-04-04T11:13:10;3.88;;;2.58;;
46745;SDS011;32493;50.514;9.678;2023-04-04T11:15:19;5.20;;;2.45;;
46745;SDS011;32493;50.514;9.678;2023-04-04T11:17:41;5.20;;;2.63;;
46745;SDS011;32493;50.514;9.678;2023-04-04T11:20:54;3.97;;;2.65;;
46745;SDS011;32493;50.514;9.678;2023-04-04T11:23:23;3.72;;;2.45;;
46745;SDS011;32493;50.514;9.678;2023-04-04T11:26:02;3.78;;;2.50;;
46745;SDS011;32493;50.514;9.678;2023-04-04T11:28:55;3.80;;;2.53;;
46745;SDS011;32493;50.514;9.678;2023-04-04T11:34:03;5.07;;;2.53;;
46745;SDS011;32493;50.514;9.678;2023-04-04T11:39:12;5.97;;;2.78;;
46745;SDS011;32493;50.514;9.678;2023-04-04T11:41:51;8.90;;;2.70;;
46745;SDS011;32493;50.514;9.678;2023-04-04T11:44:13;5.85;;;3.20;;
46745;SDS011;32493;50.514;9.678;2023-04-04T11:46:37;6.18;;;3.20;;
46745;SDS011;32493;50.514;9.678;2023-04-04T11:48:54;5.72;;;2.70;;
46745;SDS011;32493;50.514;9.678;2023-04-04T11:51:05;6.00;;;2.92;;
46745;SDS011;32493;50.514;9.678;2023-04-04T11:53:22;6.25;;;3.17;;
46745;SDS011;32493;50.514;9.678;2023-04-04T11:55:37;5.80;;;2.83;;
46745;SDS011;32493;50.514;9.678;2023-04-04T11:57:56;7.30;;;3.20;;
46745;SDS011;32493;50.514;9.678;2023-04-04T12:00:33;6.32;;;2.90;;
46745;SDS011;32493;50.514;9.678;2023-04-04T12:02:57;5.85;;;2.45;;
46745;SDS011;32493;50.514;9.678;2023-04-04T12:05:08;7.40;;;3.10;;
46745;SDS011;32493;50.514;9.678;2023-04-04T12:07:32;5.05;;;3.08;;
46745;SDS011;32493;50.514;9.678;2023-04-04T12:10:08;7.50;;;3.40;;
46745;SDS011;32493;50.514;9.678;2023-04-04T12:12:32;7.15;;;2.92;;
46745;SDS011;32493;50.514;9.678;2023-04-04T12:14:47;5.18;;;3.45;;
46745;SDS011;32493;50.514;9.678;2023-04-04T12:17:01;3.65;;;2.70;;
46745;SDS011;32493;50.514;9.678;2023-04-04T12:19:25;7.25;;;3.58;;
46745;SDS011;32493;50.514;9.678;2023-04-04T12:21:49;4.75;;;3.17;;
46745;SDS011;32493;50.514;9.678;2023-04-04T12:24:27;5.07;;;2.75;;
46745;SDS011;32493;50.514;9.678;2023-04-04T12:26:47;3.10;;;2.55;;
46745;SDS011;32493;50.514;9.678;2023-04-04T12:28:54;4.82;;;2.70;;
46745;SDS011;32493;50.514;9.678;2023-04-04T12:31:03;6.80;;;3.10;;
46745;SDS011;32493;50.514;9.678;2023-04-04T12:33:09;4.65;;;3.05;;
46745;SDS011;32493;50.514;9.678;2023-04-04T12:35:15;9.60;;;3.10;;
46745;SDS011;32493;50.514;9.678;2023-04-04T12:37:20;6.50;;;3.00;;
46745;SDS011;32493;50.514;9.678;2023-04-04T12:39:28;5.38;;;2.95;;
46745;SDS011;32493;50.514;9.678;2023-04-04T12:41:33;5.88;;;2.70;;
46745;SDS011;32493;50.514;9.678;2023-04-04T12:43:39;5.00;;;2.90;;
46745;SDS011;32493;50.514;9.678;2023-04-04T12:45:48;5.43;;;2.45;;
46745;SDS011;32493;50.514;9.678;2023-04-04T12:47:57;5.10;;;2.65;;
46745;SDS011;32493;50.514;9.678;2023-04-04T12:50:03;5.72;;;2.75;;
46745;SDS011;32493;50.514;9.678;2023-04-04T12:52:25;5.45;;;2.75;;
46745;SDS011;32493;50.514;9.678;2023-04-04T12:54:34;4.82;;;2.83;;
46745;SDS011;32493;50.514;9.678;2023-04-04T12:56:42;4.75;;;2.78;;
46745;SDS011;32493;50.514;9.678;2023-04-04T12:58:48;5.38;;;2.65;;
46745;SDS011;32493;50.514;9.678;2023-04-04T13:00:54;5.20;;;2.60;;
46745;SDS011;32493;50.514;9.678;2023-04-04T13:03:05;2.90;;;2.40;;
46745;SDS011;32493;50.514;9.678;2023-04-04T13:05:12;3.10;;;2.42;;
46745;SDS011;32493;50.514;9.678;2023-04-04T13:07:19;5.68;;;3.08;;
46745;SDS011;32493;50.514;9.678;2023-04-04T13:09:26;4.25;;;2.80;;
46745;SDS011;32493;50.514;9.678;2023-04-04T13:14:04;6.32;;;4.05;;
46745;SDS011;32493;50.514;9.678;2023-04-04T13:16:27;6.68;;;4.05;;